createdAt,value
2018-08-04T00:00:42.786Z,4.83
2018-08-04T00:03:10.379Z,6.00
2018-08-04T00:05:38.054Z,7.30
2018-08-04T00:08:05.767Z,4.47
2018-08-04T00:10:33.338Z,4.60
2018-08-04T00:13:01.011Z,5.10
2018-08-04T00:15:28.699Z,6.07
2018-08-04T00:17:56.348Z,4.90
2018-08-04T00:20:24.043Z,6.10
2018-08-04T00:22:51.758Z,5.30
2018-08-04T00:25:19.514Z,6.93
2018-08-04T00:27:47.075Z,8.13
2018-08-04T00:30:15.083Z,5.30
2018-08-04T00:32:43.246Z,5.17
2018-08-04T00:35:11.558Z,5.03
2018-08-04T00:37:39.179Z,6.33
2018-08-04T00:40:08.286Z,8.77
2018-08-04T00:42:36.009Z,6.30
2018-08-04T00:45:04.023Z,6.03
2018-08-04T00:47:31.668Z,7.27
2018-08-04T00:49:59.670Z,5.87
2018-08-04T00:52:27.206Z,7.43
2018-08-04T00:54:55.114Z,6.33
2018-08-04T00:57:22.776Z,6.70
2018-08-04T00:59:50.443Z,6.00
2018-08-04T01:02:18.116Z,7.17
2018-08-04T01:04:45.734Z,8.43
2018-08-04T01:07:13.366Z,7.77
2018-08-04T01:09:40.996Z,6.33
2018-08-04T01:12:08.612Z,7.10
2018-08-04T01:14:36.230Z,5.87
2018-08-04T01:17:03.823Z,7.53
2018-08-04T01:19:31.766Z,8.67
2018-08-04T01:21:59.397Z,7.33
2018-08-04T01:24:26.886Z,8.50
2018-08-04T01:26:54.398Z,7.50
2018-08-04T01:29:22.002Z,8.47
2018-08-04T01:31:49.611Z,7.23
2018-08-04T01:34:17.166Z,7.77
2018-08-04T01:36:44.801Z,7.87
2018-08-04T01:39:12.398Z,8.00
2018-08-04T01:41:40.013Z,8.23
2018-08-04T01:44:07.604Z,8.50
2018-08-04T01:46:35.154Z,9.33
2018-08-04T01:49:02.782Z,8.73
2018-08-04T01:51:30.334Z,10.40
2018-08-04T01:53:57.916Z,9.20
2018-08-04T01:56:25.478Z,8.43
2018-08-04T01:58:53.066Z,10.53
2018-08-04T02:01:20.690Z,10.83
2018-08-04T02:03:48.296Z,9.40
2018-08-04T02:06:15.923Z,10.10
2018-08-04T02:08:43.522Z,9.50
2018-08-04T02:11:11.122Z,10.20
2018-08-04T02:13:38.690Z,9.53
2018-08-04T02:16:06.324Z,11.00
2018-08-04T02:18:33.995Z,11.20
2018-08-04T02:21:01.606Z,11.97
2018-08-04T02:23:29.286Z,8.73
2018-08-04T02:25:56.831Z,12.80
2018-08-04T02:28:24.375Z,9.13
2018-08-04T02:30:51.948Z,9.00
2018-08-04T02:33:19.626Z,7.33
2018-08-04T02:35:47.256Z,8.23
2018-08-04T02:38:14.887Z,8.10
2018-08-04T02:40:42.527Z,8.90
2018-08-04T02:43:10.134Z,8.40
2018-08-04T02:45:37.730Z,9.80
2018-08-04T02:48:05.301Z,8.40
2018-08-04T02:50:32.874Z,7.93
2018-08-04T02:53:00.513Z,7.80
2018-08-04T02:55:28.076Z,9.10
2018-08-04T02:57:55.722Z,7.67
2018-08-04T03:00:23.378Z,7.17
2018-08-04T03:02:50.954Z,8.97
2018-08-04T03:05:18.599Z,9.17
2018-08-04T03:07:46.220Z,8.57
2018-08-04T03:10:13.899Z,9.53
2018-08-04T03:12:41.595Z,9.23
2018-08-04T03:15:09.206Z,9.03
2018-08-04T03:17:36.980Z,8.60
2018-08-04T03:20:05.823Z,8.80
2018-08-04T03:22:33.503Z,9.73
2018-08-04T03:25:01.182Z,8.40
2018-08-04T03:27:28.855Z,8.47
2018-08-04T03:29:56.457Z,9.30
2018-08-04T03:32:24.062Z,8.50
2018-08-04T03:34:51.623Z,13.80
2018-08-04T03:37:19.271Z,11.33
2018-08-04T03:39:46.778Z,8.70
2018-08-04T03:42:14.430Z,7.50
2018-08-04T03:44:42.011Z,10.00
2018-08-04T03:47:09.614Z,8.93
2018-08-04T03:49:37.199Z,9.60
2018-08-04T03:52:04.888Z,15.00
2018-08-04T03:54:32.409Z,8.73
2018-08-04T03:57:00.079Z,10.90
2018-08-04T03:59:27.706Z,9.57
2018-08-04T04:01:55.310Z,10.63
2018-08-04T04:04:22.914Z,13.73
2018-08-04T04:06:50.486Z,14.03
2018-08-04T04:09:18.111Z,9.40
2018-08-04T04:11:45.663Z,11.73
2018-08-04T04:14:13.253Z,10.33
2018-08-04T04:16:40.875Z,10.43
2018-08-04T04:19:08.607Z,11.87
2018-08-04T04:21:36.197Z,11.23
2018-08-04T04:24:03.742Z,10.73
2018-08-04T04:26:31.313Z,12.43
2018-08-04T04:28:58.934Z,13.17
2018-08-04T04:31:26.552Z,10.80
2018-08-04T04:33:54.159Z,14.70
2018-08-04T04:36:21.814Z,16.23
2018-08-04T04:38:49.475Z,11.23
2018-08-04T04:41:17.062Z,12.87
2018-08-04T04:43:44.750Z,13.43
2018-08-04T04:46:12.348Z,11.27
2018-08-04T04:48:39.914Z,12.03
2018-08-04T04:51:07.519Z,13.43
2018-08-04T04:53:35.138Z,13.53
2018-08-04T04:56:02.812Z,11.80
2018-08-04T04:58:30.503Z,11.23
2018-08-04T05:00:58.486Z,10.80
2018-08-04T05:03:26.158Z,11.10
2018-08-04T05:05:53.714Z,11.70
2018-08-04T05:08:21.286Z,11.27
2018-08-04T05:10:48.854Z,11.03
2018-08-04T05:13:16.452Z,9.87
2018-08-04T05:15:44.050Z,12.03
2018-08-04T05:18:11.553Z,12.13
2018-08-04T05:20:39.214Z,13.43
2018-08-04T05:23:06.811Z,10.77
2018-08-04T05:25:34.403Z,11.73
2018-08-04T05:28:02.056Z,10.47
2018-08-04T05:30:29.714Z,11.40
2018-08-04T05:32:57.339Z,11.50
2018-08-04T05:35:24.898Z,11.17
2018-08-04T05:37:52.442Z,13.10
2018-08-04T05:40:20.015Z,11.57
2018-08-04T05:42:47.682Z,11.53
2018-08-04T05:45:15.347Z,11.20
2018-08-04T05:47:42.947Z,13.10
2018-08-04T05:50:10.591Z,11.50
2018-08-04T05:52:38.135Z,12.63
2018-08-04T05:55:05.905Z,11.03
2018-08-04T05:57:33.431Z,15.10
2018-08-04T06:00:01.094Z,10.27
2018-08-04T06:02:28.756Z,11.60
2018-08-04T06:04:56.390Z,12.60
2018-08-04T06:07:24.005Z,12.93
2018-08-04T06:09:51.962Z,11.37
2018-08-04T06:12:19.550Z,13.90
2018-08-04T06:14:47.122Z,12.17
2018-08-04T06:17:14.690Z,10.30
2018-08-04T06:19:42.334Z,13.67
2018-08-04T06:22:10.051Z,11.40
2018-08-04T06:24:37.565Z,11.10
2018-08-04T06:27:05.202Z,11.13
2018-08-04T06:29:32.710Z,19.43
2018-08-04T06:32:00.279Z,17.90
2018-08-04T06:34:27.885Z,12.67
2018-08-04T06:36:55.538Z,12.33
2018-08-04T06:39:23.154Z,12.83
2018-08-04T06:41:50.771Z,11.37
2018-08-04T06:44:18.467Z,9.70
2018-08-04T06:46:46.082Z,13.20
2018-08-04T06:49:13.683Z,11.20
2018-08-04T06:51:41.308Z,11.47
2018-08-04T06:54:08.854Z,11.67
2018-08-04T06:56:36.482Z,13.40
2018-08-04T06:59:04.127Z,15.10
2018-08-04T07:01:31.934Z,11.87
2018-08-04T07:03:59.586Z,11.80
2018-08-04T07:06:27.147Z,12.90
2018-08-04T07:08:54.725Z,12.90
2018-08-04T07:11:22.363Z,11.10
2018-08-04T07:13:50.007Z,11.47
2018-08-04T07:16:17.652Z,11.90
2018-08-04T07:18:45.286Z,12.70
2018-08-04T07:21:12.834Z,12.70
2018-08-04T07:23:40.453Z,11.57
2018-08-04T07:26:08.079Z,12.87
2018-08-04T07:28:35.602Z,12.37
2018-08-04T07:31:03.242Z,13.40
2018-08-04T07:33:30.878Z,11.47
2018-08-04T07:35:58.454Z,13.00
2018-08-04T07:38:26.158Z,12.43
2018-08-04T07:40:53.722Z,11.67
2018-08-04T07:43:21.439Z,10.97
2018-08-04T07:45:48.981Z,12.83
2018-08-04T07:48:16.549Z,10.63
2018-08-04T07:50:44.155Z,9.40
2018-08-04T07:53:11.646Z,11.53
2018-08-04T07:55:39.285Z,11.37
2018-08-04T07:58:06.802Z,11.47
2018-08-04T08:00:34.387Z,13.00
2018-08-04T08:03:02.264Z,11.37
2018-08-04T08:05:29.855Z,10.63
2018-08-04T08:07:57.458Z,10.33
2018-08-04T08:10:25.037Z,10.07
2018-08-04T08:12:52.742Z,12.07
2018-08-04T08:15:20.318Z,16.67
2018-08-04T08:17:47.913Z,11.37
2018-08-04T08:20:15.578Z,11.53
2018-08-04T08:22:43.726Z,10.00
2018-08-04T08:25:11.343Z,10.93
2018-08-04T08:27:39.270Z,11.30
2018-08-04T08:30:11.318Z,13.20
2018-08-04T08:32:38.982Z,11.13
2018-08-04T08:35:07.240Z,11.67
2018-08-04T08:37:34.940Z,10.30
2018-08-04T08:40:02.495Z,9.70
2018-08-04T08:42:30.166Z,17.23
2018-08-04T08:44:58.710Z,13.77
2018-08-04T08:47:26.247Z,10.27
2018-08-04T08:49:54.820Z,11.10
2018-08-04T08:52:22.435Z,9.83
2018-08-04T08:54:50.047Z,8.67
2018-08-04T08:57:17.570Z,10.60
2018-08-04T08:59:45.227Z,8.97
2018-08-04T09:02:12.826Z,10.57
2018-08-04T09:04:40.670Z,9.37
2018-08-04T09:07:08.262Z,11.43
2018-08-04T09:09:35.855Z,10.30
2018-08-04T09:12:03.436Z,9.03
2018-08-04T09:14:31.056Z,10.07
2018-08-04T09:16:59.042Z,10.40
2018-08-04T09:19:26.582Z,10.00
2018-08-04T09:21:54.164Z,10.70
2018-08-04T09:24:21.782Z,29.97
2018-08-04T09:26:49.334Z,11.60
2018-08-04T09:29:16.902Z,29.40
2018-08-04T09:31:44.459Z,32.20
2018-08-04T09:34:12.007Z,15.53
2018-08-04T09:36:39.618Z,27.43
2018-08-04T09:39:10.252Z,16.90
2018-08-04T09:41:38.142Z,13.40
2018-08-04T09:44:05.858Z,15.80
2018-08-04T09:46:33.385Z,13.77
2018-08-04T09:49:00.974Z,11.97
2018-08-04T09:51:28.563Z,11.73
2018-08-04T09:53:56.450Z,44.50
2018-08-04T09:56:24.006Z,12.73
2018-08-04T09:58:51.634Z,12.60
2018-08-04T10:01:24.858Z,13.57
2018-08-04T10:03:52.602Z,14.47
2018-08-04T10:06:20.218Z,14.23
2018-08-04T10:08:47.775Z,15.90
2018-08-04T10:11:15.433Z,11.07
2018-08-04T10:13:43.051Z,12.03
2018-08-04T10:16:10.520Z,13.00
2018-08-04T10:18:38.071Z,12.37
2018-08-04T10:21:05.642Z,11.47
2018-08-04T10:23:33.255Z,12.83
2018-08-04T10:26:00.935Z,15.67
2018-08-04T10:28:28.490Z,10.10
2018-08-04T10:30:56.090Z,11.93
2018-08-04T10:33:23.766Z,12.43
2018-08-04T10:35:51.279Z,10.77
2018-08-04T10:38:19.253Z,12.13
2018-08-04T10:40:47.307Z,12.03
2018-08-04T10:43:15.002Z,11.50
2018-08-04T10:45:42.746Z,12.50
2018-08-04T10:48:10.378Z,11.40
2018-08-04T10:50:37.920Z,12.07
2018-08-04T10:53:05.602Z,13.30
2018-08-04T10:55:33.262Z,11.37
2018-08-04T10:58:00.970Z,10.23
2018-08-04T11:00:28.583Z,9.33
2018-08-04T11:02:56.194Z,10.67
2018-08-04T11:05:23.801Z,10.13
2018-08-04T11:07:51.367Z,11.17
2018-08-04T11:10:18.966Z,9.73
2018-08-04T11:12:46.586Z,13.30
2018-08-04T11:15:14.175Z,8.87
2018-08-04T11:17:41.781Z,10.57
2018-08-04T11:20:09.445Z,8.37
2018-08-04T11:22:37.054Z,8.50
2018-08-04T11:25:04.799Z,10.20
2018-08-04T11:27:32.310Z,7.90
2018-08-04T11:29:59.838Z,10.47
2018-08-04T11:32:27.418Z,9.10
2018-08-04T11:34:54.978Z,7.97
2018-08-04T11:37:22.617Z,8.67
2018-08-04T11:39:50.242Z,9.27
2018-08-04T11:42:17.862Z,8.00
2018-08-04T11:44:45.481Z,6.90
2018-08-04T11:47:13.082Z,8.87
2018-08-04T11:49:40.688Z,6.80
2018-08-04T11:52:08.170Z,6.90
2018-08-04T11:54:35.831Z,8.57
2018-08-04T11:57:03.446Z,9.23
2018-08-04T11:59:31.034Z,8.80
2018-08-04T12:01:58.656Z,8.67
2018-08-04T12:04:26.166Z,9.67
2018-08-04T12:06:53.702Z,9.53
2018-08-04T12:09:21.327Z,11.30
2018-08-04T12:11:48.946Z,10.73
2018-08-04T12:14:16.590Z,11.70
2018-08-04T12:16:44.110Z,9.70
2018-08-04T12:19:11.726Z,9.90
2018-08-04T12:21:39.247Z,9.40
2018-08-04T12:24:06.902Z,9.87
2018-08-04T12:26:34.443Z,10.53
2018-08-04T12:29:02.035Z,8.73
2018-08-04T12:31:29.739Z,10.37
2018-08-04T12:33:57.282Z,9.50
2018-08-04T12:36:24.899Z,8.70
2018-08-04T12:38:52.429Z,8.33
2018-08-04T12:41:20.034Z,8.10
2018-08-04T12:43:47.574Z,9.17
2018-08-04T12:46:15.078Z,8.50
2018-08-04T12:48:42.695Z,7.57
2018-08-04T12:51:10.326Z,8.93
2018-08-04T12:53:37.962Z,8.20
2018-08-04T12:56:05.834Z,7.50
2018-08-04T12:58:33.521Z,9.17
2018-08-04T13:01:01.082Z,14.37
2018-08-04T13:03:28.691Z,9.00
2018-08-04T13:05:56.338Z,9.50
2018-08-04T13:08:23.883Z,7.40
2018-08-04T13:10:51.460Z,8.00
2018-08-04T13:13:19.009Z,8.03
2018-08-04T13:15:46.601Z,8.00
2018-08-04T13:18:14.176Z,8.67
2018-08-04T13:20:41.799Z,7.67
2018-08-04T13:23:09.334Z,7.60
2018-08-04T13:25:36.963Z,9.90
2018-08-04T13:28:04.631Z,10.10
2018-08-04T13:30:32.386Z,14.90
2018-08-04T13:32:59.883Z,10.43
2018-08-04T13:35:27.444Z,7.13
2018-08-04T13:37:55.015Z,7.03
2018-08-04T13:40:22.628Z,7.97
2018-08-04T13:42:50.199Z,7.60
2018-08-04T13:45:17.661Z,8.73
2018-08-04T13:47:45.185Z,8.77
2018-08-04T13:50:12.766Z,7.30
2018-08-04T13:52:40.314Z,6.90
2018-08-04T13:55:07.995Z,8.53
2018-08-04T13:57:35.618Z,7.30
2018-08-04T14:00:03.342Z,7.90
2018-08-04T14:02:30.948Z,7.17
2018-08-04T14:04:58.505Z,8.97
2018-08-04T14:07:26.034Z,7.70
2018-08-04T14:09:53.806Z,7.80
2018-08-04T14:12:21.330Z,6.57
2018-08-04T14:14:48.888Z,7.20
2018-08-04T14:17:16.483Z,6.70
2018-08-04T14:19:44.110Z,6.80
2018-08-04T14:22:11.674Z,6.90
2018-08-04T14:24:39.194Z,5.77
2018-08-04T14:27:06.804Z,6.77
2018-08-04T14:29:34.430Z,6.27
2018-08-04T14:32:01.990Z,6.33
2018-08-04T14:34:29.518Z,5.93
2018-08-04T14:37:00.515Z,5.97
2018-08-04T14:39:28.048Z,6.20
2018-08-04T14:41:55.635Z,6.83
2018-08-04T14:44:23.262Z,5.90
2018-08-04T14:46:50.762Z,10.83
2018-08-04T14:49:18.270Z,8.40
2018-08-04T14:51:45.883Z,5.90
2018-08-04T14:54:13.512Z,6.13
2018-08-04T14:56:41.003Z,5.33
2018-08-04T14:59:08.570Z,6.13
2018-08-04T15:01:36.182Z,4.67
2018-08-04T15:04:03.803Z,6.13
2018-08-04T15:06:31.445Z,5.07
2018-08-04T15:08:58.982Z,6.33
2018-08-04T15:11:26.519Z,5.57
2018-08-04T15:13:54.118Z,5.57
2018-08-04T15:16:21.698Z,25.37
2018-08-04T15:18:49.319Z,6.23
2018-08-04T15:21:16.941Z,6.13
2018-08-04T15:23:44.558Z,10.50
2018-08-04T15:26:12.136Z,9.23
2018-08-04T15:28:39.844Z,5.20
2018-08-04T15:31:07.518Z,6.93
2018-08-04T15:33:35.090Z,5.63
2018-08-04T15:36:03.518Z,7.30
2018-08-04T15:38:31.204Z,5.57
2018-08-04T15:40:58.831Z,6.50
2018-08-04T15:43:26.433Z,7.87
2018-08-04T15:45:53.974Z,9.03
2018-08-04T15:48:21.560Z,6.67
2018-08-04T15:50:49.077Z,5.83
2018-08-04T15:53:16.626Z,6.50
2018-08-04T15:55:44.186Z,6.00
2018-08-04T15:58:11.739Z,6.87
2018-08-04T16:00:39.258Z,6.30
2018-08-04T16:03:06.762Z,6.53
2018-08-04T16:05:34.310Z,5.23
2018-08-04T16:08:01.916Z,5.97
2018-08-04T16:10:29.451Z,6.00
2018-08-04T16:12:56.990Z,5.67
2018-08-04T16:15:24.523Z,5.97
2018-08-04T16:17:52.034Z,6.33
2018-08-04T16:20:19.760Z,6.27
2018-08-04T16:22:47.486Z,6.20
2018-08-04T16:25:15.426Z,9.40
2018-08-04T16:27:42.958Z,5.77
2018-08-04T16:30:10.966Z,6.20
2018-08-04T16:32:39.174Z,10.43
2018-08-04T16:35:07.515Z,6.80
2018-08-04T16:37:35.266Z,6.20
2018-08-04T16:40:04.122Z,6.57
2018-08-04T16:42:31.886Z,5.77
2018-08-04T16:44:59.766Z,6.33
2018-08-04T16:47:27.350Z,6.60
2018-08-04T16:49:54.883Z,5.03
2018-08-04T16:52:22.440Z,5.70
2018-08-04T16:54:50.201Z,13.00
2018-08-04T16:57:17.844Z,5.93
2018-08-04T16:59:45.360Z,6.27
2018-08-04T17:02:12.933Z,11.57
2018-08-04T17:04:40.606Z,5.60
2018-08-04T17:07:08.178Z,5.00
2018-08-04T17:09:35.782Z,6.57
2018-08-04T17:12:03.428Z,5.03
2018-08-04T17:14:31.002Z,6.80
2018-08-04T17:16:58.635Z,8.13
2018-08-04T17:19:26.134Z,5.00
2018-08-04T17:21:53.823Z,6.10
2018-08-04T17:24:21.347Z,6.30
2018-08-04T17:26:49.304Z,5.27
2018-08-04T17:29:16.924Z,5.17
2018-08-04T17:31:44.525Z,4.93
2018-08-04T17:34:12.015Z,7.07
2018-08-04T17:36:39.631Z,6.17
2018-08-04T17:39:08.730Z,6.20
2018-08-04T17:41:36.274Z,6.63
2018-08-04T17:44:03.851Z,6.43
2018-08-04T17:46:31.614Z,3.97
2018-08-04T17:48:59.191Z,5.23
2018-08-04T17:51:26.866Z,4.13
2018-08-04T17:53:54.470Z,4.47
2018-08-04T17:56:22.083Z,5.63
2018-08-04T17:58:49.654Z,5.30
2018-08-04T18:01:17.482Z,5.60
2018-08-04T18:03:45.052Z,3.93
2018-08-04T18:06:12.686Z,3.83
2018-08-04T18:08:40.270Z,3.53
2018-08-04T18:11:07.936Z,6.20
2018-08-04T18:13:35.465Z,4.70
2018-08-04T18:16:02.994Z,4.20
2018-08-04T18:18:30.542Z,5.03
2018-08-04T18:20:58.180Z,3.53
2018-08-04T18:23:25.742Z,3.30
2018-08-04T18:25:53.342Z,3.27
2018-08-04T18:28:20.918Z,3.10
2018-08-04T18:30:48.463Z,4.13
2018-08-04T18:33:16.034Z,2.90
2018-08-04T18:35:45.091Z,2.97
2018-08-04T18:38:13.288Z,3.03
2018-08-04T18:40:40.971Z,2.73
2018-08-04T18:43:08.902Z,2.73
2018-08-04T18:45:36.610Z,4.27
2018-08-04T18:48:04.158Z,3.20
2018-08-04T18:50:31.742Z,6.47
2018-08-04T18:52:59.433Z,2.60
2018-08-04T18:55:26.966Z,3.87
2018-08-04T18:57:54.526Z,2.70
2018-08-04T19:00:22.154Z,3.10
2018-08-04T19:02:49.775Z,2.17
2018-08-04T19:05:17.378Z,2.47
2018-08-04T19:07:44.890Z,5.10
2018-08-04T19:10:12.426Z,2.23
2018-08-04T19:12:39.954Z,2.60
2018-08-04T19:15:07.514Z,6.00
2018-08-04T19:17:35.034Z,2.23
2018-08-04T19:20:02.952Z,2.03
2018-08-04T19:22:30.502Z,2.50
2018-08-04T19:24:58.160Z,4.33
2018-08-04T19:27:25.958Z,3.10
2018-08-04T19:29:53.490Z,3.20
2018-08-04T19:32:21.127Z,2.10
2018-08-04T19:34:48.660Z,3.60
2018-08-04T19:37:16.209Z,3.33
2018-08-04T19:39:43.942Z,2.23
2018-08-04T19:42:11.643Z,5.27
2018-08-04T19:44:39.175Z,1.77
2018-08-04T19:47:07.287Z,2.10
2018-08-04T19:49:35.077Z,1.77
2018-08-04T19:52:02.718Z,2.53
2018-08-04T19:54:30.417Z,5.20
2018-08-04T19:56:58.078Z,2.43
2018-08-04T19:59:25.719Z,6.07
2018-08-04T20:01:53.446Z,5.20
2018-08-04T20:04:21.005Z,5.57
2018-08-04T20:06:48.486Z,1.70
2018-08-04T20:09:16.131Z,5.47
2018-08-04T20:11:43.758Z,2.10
2018-08-04T20:14:11.343Z,3.30
2018-08-04T20:16:38.842Z,1.87
2018-08-04T20:19:06.538Z,2.50
2018-08-04T20:21:34.151Z,6.60
2018-08-04T20:24:02.155Z,3.03
2018-08-04T20:26:29.654Z,3.37
2018-08-04T20:28:57.238Z,2.93
2018-08-04T20:31:24.921Z,2.73
2018-08-04T20:33:52.442Z,1.87
2018-08-04T20:36:19.986Z,4.40
2018-08-04T20:38:48.020Z,2.37
2018-08-04T20:41:15.714Z,1.83
2018-08-04T20:43:43.245Z,1.80
2018-08-04T20:46:10.770Z,2.27
2018-08-04T20:48:38.366Z,1.97
2018-08-04T20:51:06.019Z,1.50
2018-08-04T20:53:33.663Z,4.63
2018-08-04T20:56:01.383Z,5.90
2018-08-04T20:58:29.043Z,2.53
2018-08-04T21:01:08.272Z,4.03
2018-08-04T21:03:36.158Z,2.73
2018-08-04T21:06:03.789Z,2.20
2018-08-04T21:08:31.718Z,3.03
2018-08-04T21:10:59.603Z,2.10
2018-08-04T21:13:28.521Z,2.90
2018-08-04T21:15:57.310Z,1.57
2018-08-04T21:18:25.661Z,1.90
2018-08-04T21:20:53.440Z,1.90
2018-08-04T21:23:21.342Z,1.53
2018-08-04T21:25:49.242Z,5.57
2018-08-04T21:28:16.966Z,2.10
2018-08-04T21:30:47.371Z,2.90
2018-08-04T21:33:15.294Z,3.17
2018-08-04T21:35:43.471Z,1.87
2018-08-04T21:38:11.593Z,1.93
2018-08-04T21:40:39.462Z,1.80
2018-08-04T21:43:08.242Z,2.43
2018-08-04T21:45:37.990Z,1.93
2018-08-04T21:48:06.481Z,1.97
2018-08-04T21:50:35.527Z,2.33
2018-08-04T21:53:05.979Z,3.43
2018-08-04T21:55:34.407Z,2.77
2018-08-04T21:58:02.110Z,1.73
2018-08-04T22:00:30.451Z,3.70
2018-08-04T22:03:00.154Z,3.00
2018-08-04T22:05:29.630Z,3.60
2018-08-04T22:08:10.071Z,4.27
2018-08-04T22:10:38.707Z,2.73
2018-08-04T22:13:06.581Z,3.73
2018-08-04T22:15:36.858Z,2.53
2018-08-04T22:18:04.740Z,2.10
2018-08-04T22:20:32.431Z,5.30
2018-08-04T22:23:00.059Z,2.27
2018-08-04T22:25:28.926Z,2.20
2018-08-04T22:27:57.075Z,4.70
2018-08-04T22:30:25.047Z,2.73
2018-08-04T22:32:52.654Z,1.90
2018-08-04T22:35:20.828Z,2.37
2018-08-04T22:37:48.679Z,2.40
2018-08-04T22:40:18.085Z,2.10
2018-08-04T22:42:46.050Z,3.00
2018-08-04T22:46:23.014Z,3.23
2018-08-04T22:48:53.067Z,2.50
2018-08-04T22:51:26.219Z,2.50
2018-08-04T22:53:54.742Z,4.63
2018-08-04T22:56:22.812Z,4.83
2018-08-04T22:58:50.689Z,1.93
2018-08-04T23:01:18.670Z,2.37
2018-08-04T23:06:14.187Z,2.80
2018-08-04T23:08:42.114Z,3.00
2018-08-04T23:11:09.698Z,5.00
2018-08-04T23:13:37.225Z,2.57
2018-08-04T23:16:04.890Z,2.60
2018-08-04T23:18:32.846Z,2.00
2018-08-04T23:21:00.687Z,2.47
2018-08-04T23:23:28.813Z,4.43
2018-08-04T23:25:56.534Z,2.53
2018-08-04T23:28:25.021Z,2.10
2018-08-04T23:30:52.936Z,2.80
2018-08-04T23:33:20.863Z,2.03
2018-08-04T23:35:48.757Z,3.43
2018-08-04T23:38:16.295Z,2.97
2018-08-04T23:40:43.882Z,1.90
2018-08-04T23:43:11.486Z,2.30
2018-08-04T23:45:39.050Z,2.33
2018-08-04T23:48:06.598Z,1.77
2018-08-04T23:50:34.131Z,2.07
2018-08-04T23:53:01.831Z,2.30
2018-08-04T23:55:29.374Z,2.77
2018-08-04T23:57:56.893Z,2.00
